Map

Track Data

SID SEASON NUMBER BASIN SUBBASIN NAME ISO_TIME NATURE LAT LON WMO_WIND WMO_PRES WMO_AGENCY TRACK_TYPE DIST2LAND LANDFALL IFLAG USA_AGENCY USA_ATCF_ID USA_LAT USA_LON USA_RECORD USA_STATUS USA_WIND USA_PRES USA_SSHS USA_R34_NE USA_R34_SE USA_R34_SW USA_R34_NW USA_R50_NE USA_R50_SE USA_R50_SW USA_R50_NW USA_R64_NE USA_R64_SE USA_R64_SW USA_R64_NW USA_POCI USA_ROCI USA_RMW USA_EYE TOKYO_LAT TOKYO_LON TOKYO_GRADE TOKYO_WIND TOKYO_PRES TOKYO_R50_DIR TOKYO_R50_LONG TOKYO_R50_SHORT TOKYO_R30_DIR TOKYO_R30_LONG TOKYO_R30_SHORT TOKYO_LAND CMA_LAT CMA_LON CMA_CAT CMA_WIND CMA_PRES HKO_LAT HKO_LON HKO_CAT HKO_WIND HKO_PRES NEWDELHI_LAT NEWDELHI_LON NEWDELHI_GRADE NEWDELHI_WIND NEWDELHI_PRES NEWDELHI_CI NEWDELHI_DP NEWDELHI_POCI REUNION_LAT REUNION_LON REUNION_TYPE REUNION_WIND REUNION_PRES REUNION_TNUM REUNION_CI REUNION_RMW REUNION_R34_NE REUNION_R34_SE REUNION_R34_SW REUNION_R34_NW REUNION_R50_NE REUNION_R50_SE REUNION_R50_SW REUNION_R50_NW REUNION_R64_NE REUNION_R64_SE REUNION_R64_SW REUNION_R64_NW BOM_LAT BOM_LON BOM_TYPE BOM_WIND BOM_PRES BOM_TNUM BOM_CI BOM_RMW BOM_R34_NE BOM_R34_SE BOM_R34_SW BOM_R34_NW BOM_R50_NE BOM_R50_SE BOM_R50_SW BOM_R50_NW BOM_R64_NE BOM_R64_SE BOM_R64_SW BOM_R64_NW BOM_ROCI BOM_POCI BOM_EYE BOM_POS_METHOD BOM_PRES_METHOD NADI_LAT NADI_LON NADI_CAT NADI_WIND NADI_PRES WELLINGTON_LAT WELLINGTON_LON WELLINGTON_WIND WELLINGTON_PRES DS824_LAT DS824_LON DS824_STAGE DS824_WIND DS824_PRES TD9636_LAT TD9636_LON TD9636_STAGE TD9636_WIND TD9636_PRES TD9635_LAT TD9635_LON TD9635_WIND TD9635_PRES TD9635_ROCI NEUMANN_LAT NEUMANN_LON NEUMANN_CLASS NEUMANN_WIND NEUMANN_PRES MLC_LAT MLC_LON MLC_CLASS MLC_WIND MLC_PRES USA_GUST BOM_GUST BOM_GUST_PER REUNION_GUST REUNION_GUST_PER USA_SEAHGT USA_SEARAD_NE USA_SEARAD_SE USA_SEARAD_SW USA_SEARAD_NW STORM_SPEED STORM_DIR
1944275N11136 1944 65 WP MM NOT_NAMED 1944-09-30 12:00:00 NR 11.0000 135.700 main 1059 957 __________O___ -1 11.0000 135.700 2 22 283
1944275N11136 1944 65 WP MM NOT_NAMED 1944-09-30 15:00:00 NR 11.2463 134.599 main 946 849 __________P___ -1 11.2463 134.599 2 22 283
1944275N11136 1944 65 WP MM NOT_NAMED 1944-09-30 18:00:00 NR 11.4723 133.537 main 839 745 __________P___ -1 11.4723 133.537 2 20 282
1944275N11136 1944 65 WP MM NOT_NAMED 1944-09-30 21:00:00 NR 11.6619 132.557 main 745 649 __________P___ -1 11.6619 132.557 2 18 280
1944275N11136 1944 65 WP MM NOT_NAMED 1944-10-01 00:00:00 NR 11.8000 131.700 main 649 575 __________O___ -1 11.8000 131.700 2 15 278
1944275N11136 1944 65 WP MM NOT_NAMED 1944-10-01 03:00:00 NR 11.8773 130.993 main 575 511 __________P___ -1 11.8773 130.993 2 13 275
1944275N11136 1944 65 WP MM NOT_NAMED 1944-10-01 06:00:00 NR 11.9074 130.394 main 511 458 __________P___ -1 11.9074 130.394 2 11 272
1944275N11136 1944 65 WP MM NOT_NAMED 1944-10-01 09:00:00 NR 11.9089 129.849 main 447 394 __________P___ -1 11.9089 129.849 2 11 270
1944275N11136 1944 65 WP MM NOT_NAMED 1944-10-01 12:00:00 NR 11.9000 129.300 main 394 331 __________O___ -1 11.9000 129.300 2 12 270
1944275N11136 1944 65 WP MM NOT_NAMED 1944-10-01 15:00:00 NR 11.9070 128.660 main 331 260 __________P___ -1 11.9070 128.660 2 13 270
1944275N11136 1944 65 WP MM NOT_NAMED 1944-10-01 18:00:00 NR 11.9072 128.007 main 260 201 __________P___ -1 11.9072 128.007 2 13 270
1944275N11136 1944 65 WP MM NOT_NAMED 1944-10-01 21:00:00 NR 11.9038 127.351 main 201 132 __________P___ -1 11.9038 127.351 2 13 270
1944275N11136 1944 65 WP MM NOT_NAMED 1944-10-02 00:00:00 NR 11.9000 126.700 main 132 69 __________O___ -1 11.9000 126.700 2 12 270
1944275N11136 1944 65 WP MM NOT_NAMED 1944-10-02 03:00:00 NR 11.8994 126.076 main 69 10 __________P___ -1 11.8994 126.076 2 12 270
1944275N11136 1944 65 WP MM NOT_NAMED 1944-10-02 06:00:00 NR 11.8991 125.457 main 10 0 __________P___ -1 11.8991 125.457 2 12 270
1944275N11136 1944 65 WP MM NOT_NAMED 1944-10-02 09:00:00 NR 11.8994 124.835 main 0 0 __________P___ -1 11.8994 124.835 2 12 270
1944275N11136 1944 65 WP MM NOT_NAMED 1944-10-02 12:00:00 NR 11.9000 124.200 main 15 0 __________O___ -1 11.9000 124.200 2 13 270
1944275N11136 1944 65 WP MM NOT_NAMED 1944-10-02 15:00:00 NR 11.8999 123.523 main 21 0 __________P___ -1 11.8999 123.523 2 13 270
1944275N11136 1944 65 WP MM NOT_NAMED 1944-10-02 18:00:00 NR 11.9000 122.835 main 44 11 __________P___ -1 11.9000 122.835 2 13 270
1944275N11136 1944 65 WP MM NOT_NAMED 1944-10-02 21:00:00 NR 11.9000 122.154 main 11 11 __________P___ -1 11.9000 122.154 2 13 270
1944275N11136 1944 65 WP MM NOT_NAMED 1944-10-03 00:00:00 NR 11.9000 121.500 main 34 33 __________O___ -1 11.9000 121.500 2 12 269
1944275N11136 1944 65 WP MM NOT_NAMED 1944-10-03 03:00:00 NR 11.8831 120.896 main 40 40 __________P___ -1 11.8831 120.896 2 12 268
1944275N11136 1944 65 WP MM NOT_NAMED 1944-10-03 06:00:00 NR 11.8692 120.320 main 93 70 __________P___ -1 11.8692 120.320 2 11 269
1944275N11136 1944 65 WP MM NOT_NAMED 1944-10-03 09:00:00 NR 11.8707 119.758 main 70 67 __________P___ -1 11.8707 119.758 2 11 272
1944275N11136 1944 65 WP MM NOT_NAMED 1944-10-03 12:00:00 NR 11.9000 119.200 main 74 74 __________O___ -1 11.9000 119.200 2 11 275
1944275N11136 1944 65 WP MM NOT_NAMED 1944-10-03 15:00:00 NR 11.9711 118.609 main 125 125 __________P___ -1 11.9711 118.609 2 12 278
1944275N11136 1944 65 WP MM NOT_NAMED 1944-10-03 18:00:00 NR 12.0699 118.020 main 182 182 __________P___ -1 12.0699 118.020 2 12 281
1944275N11136 1944 65 WP MM NOT_NAMED 1944-10-03 21:00:00 NR 12.1837 117.446 main 245 245 __________P___ -1 12.1837 117.446 2 11 282
1944275N11136 1944 65 WP MM NOT_NAMED 1944-10-04 00:00:00 NR 12.3000 116.900 main 298 298 __________O___ -1 12.3000 116.900 2 10 282
1944275N11136 1944 65 WP MM NOT_NAMED 1944-10-04 03:00:00 NR 12.4075 116.404 main 353 353 __________P___ -1 12.4075 116.404 2 10 283
1944275N11136 1944 65 WP MM NOT_NAMED 1944-10-04 06:00:00 NR 12.5142 115.935 main 408 408 __________P___ -1 12.5142 115.935 2 9 283
1944275N11136 1944 65 WP MM NOT_NAMED 1944-10-04 09:00:00 NR 12.6138 115.473 main 452 452 __________P___ -1 12.6138 115.473 2 9 282
1944275N11136 1944 65 WP MM NOT_NAMED 1944-10-04 12:00:00 NR 12.7000 115.000 main 497 497 __________O___ -1 12.7000 115.000 2 10 279
1944275N11136 1944 65 WP MM NOT_NAMED 1944-10-04 15:00:00 NR 12.7682 114.501 main 540 488 __________P___ -1 12.7682 114.501 2 10 277
1944275N11136 1944 65 WP MM NOT_NAMED 1944-10-04 18:00:00 NR 12.8212 113.980 main 488 433 __________P___ -1 12.8212 113.980 2 10 275
1944275N11136 1944 65 WP MM NOT_NAMED 1944-10-04 21:00:00 NR 12.8635 113.444 main 422 368 __________P___ -1 12.8635 113.444 2 11 274
1944275N11136 1944 65 WP MM NOT_NAMED 1944-10-05 00:00:00 NR 12.9000 112.900 main 368 __________O___ -1 12.9000 112.900 2 11 274

Digital Typhoon Data and Search

About IBTrACS Database

This database is a web-friendly format of International Best Track Archive for Climate Stewardship (IBTrACS), a global best track data archive curated by NOAA dating back to 1842.

Updated: 2021-10-27